Pagina principale
METAR-TAF:

METAR-TAF

Aeroporti :

Aeroporto Internazionale di Sarajevo

Sarajevo, Bosnia-Erzegovina

latitudine: 43-49N, longitudine: 018-20E, altezza: 511 m

Osservazione

Il bollettino è stato emesso 38 minuti fa, alle 15:30 UTC
Vento 3 kt da direzioni variabili
Temperature 19°C
Umidità 37%
Pressione 1019 hPa
Visibilità 10 km o più
Poco nuvoloso ad un'altezza di 4500 ft
Nubi sparse ad un'altezza di 6000 ft

METAR: LQSA 231530Z VRB03KT 9999 FEW045 SCT060 19/04 Q1019 NOSIG

Ora: 18:08 (16:08 UTC)

Previsione

Il bollettino è stato emesso 5 ore e 8 minuti fa, alle 11:00 UTC
Previsione valida dal 23 alle 12 UTC al 24 alle 12 UTC
Vento 8 kt da ovest/nord-ovest
Visibilità 10 km o più
Nubi sparse ad un'altezza di 4500 ft
Probabilità 40%
dal 24 alle 03 UTC al 24 alle 07 UTC
Visibilità: 3000 m
Nuvoloso ad un'altezza di 500 ft
foschia

TAF: LQSA 231100Z 2312/2412 30008KT 9999 SCT045 TX20/2314Z TN07/2403Z PROB40 2403/2407 3000 BR BKN005

Osservazioni e previsioni meteorologiche di più di 4000 aeroporti (messaggi METAR e TAF).

Le stazioni disponibili sono rappresentate dai dischi gialli e rossi sulla carta.

Puntare il mouse per vedere il nome della stazione.

Clicca sopra per visualizzare le osservazioni e previsioni meteorologiche.

Per cambiare la mappa : fare clic sui pulsanti verdi con una croce nera per ingrandire, il pulsante verde con un trattino per diminuire, o sulla freccia verde per le mappe adiacenti.


METAR-TAF: